sensor_id;sensor_type;location;lat;lon;timestamp;P1;durP1;ratioP1;P2;durP2;ratioP2
85196;SDS011;75566;42.698;23.346;2024-03-25T00:01:35;0.30;;;0.30;;
85196;SDS011;75566;42.698;23.346;2024-03-25T00:04:01;0.88;;;0.40;;
85196;SDS011;75566;42.698;23.346;2024-03-25T00:06:26;0.40;;;0.40;;
85196;SDS011;75566;42.698;23.346;2024-03-25T00:08:52;0.32;;;0.25;;
85196;SDS011;75566;42.698;23.346;2024-03-25T00:11:17;0.32;;;0.30;;
85196;SDS011;75566;42.698;23.346;2024-03-25T00:13:43;0.55;;;0.20;;
85196;SDS011;75566;42.698;23.346;2024-03-25T00:16:08;0.17;;;0.17;;
85196;SDS011;75566;42.698;23.346;2024-03-25T00:18:34;0.95;;;0.40;;
85196;SDS011;75566;42.698;23.346;2024-03-25T00:20:59;0.17;;;0.17;;
85196;SDS011;75566;42.698;23.346;2024-03-25T00:23:25;0.50;;;0.30;;
85196;SDS011;75566;42.698;23.346;2024-03-25T00:25:50;0.17;;;0.17;;
85196;SDS011;75566;42.698;23.346;2024-03-25T00:28:17;0.20;;;0.20;;
85196;SDS011;75566;42.698;23.346;2024-03-25T00:30:44;0.30;;;0.30;;
85196;SDS011;75566;42.698;23.346;2024-03-25T00:33:10;0.17;;;0.17;;
85196;SDS011;75566;42.698;23.346;2024-03-25T00:35:36;1.67;;;0.35;;
85196;SDS011;75566;42.698;23.346;2024-03-25T00:38:01;0.30;;;0.30;;
85196;SDS011;75566;42.698;23.346;2024-03-25T00:40:27;0.20;;;0.20;;
85196;SDS011;75566;42.698;23.346;2024-03-25T00:42:52;0.15;;;0.15;;
85196;SDS011;75566;42.698;23.346;2024-03-25T00:45:18;0.30;;;0.30;;
85196;SDS011;75566;42.698;23.346;2024-03-25T00:47:43;0.47;;;0.47;;
85196;SDS011;75566;42.698;23.346;2024-03-25T00:50:09;0.40;;;0.30;;
85196;SDS011;75566;42.698;23.346;2024-03-25T00:52:35;0.30;;;0.30;;
85196;SDS011;75566;42.698;23.346;2024-03-25T00:55:01;0.20;;;0.20;;
85196;SDS011;75566;42.698;23.346;2024-03-25T00:57:27;0.22;;;0.22;;
85196;SDS011;75566;42.698;23.346;2024-03-25T00:59:54;0.40;;;0.40;;
85196;SDS011;75566;42.698;23.346;2024-03-25T01:02:20;0.30;;;0.30;;
85196;SDS011;75566;42.698;23.346;2024-03-25T01:04:46;0.52;;;0.25;;
85196;SDS011;75566;42.698;23.346;2024-03-25T01:07:11;0.20;;;0.20;;
85196;SDS011;75566;42.698;23.346;2024-03-25T01:09:37;0.30;;;0.30;;
85196;SDS011;75566;42.698;23.346;2024-03-25T01:12:03;0.35;;;0.30;;
85196;SDS011;75566;42.698;23.346;2024-03-25T01:14:29;0.30;;;0.30;;
85196;SDS011;75566;42.698;23.346;2024-03-25T01:16:54;0.32;;;0.32;;
85196;SDS011;75566;42.698;23.346;2024-03-25T01:19:21;0.35;;;0.35;;
85196;SDS011;75566;42.698;23.346;2024-03-25T01:21:46;0.68;;;0.47;;
85196;SDS011;75566;42.698;23.346;2024-03-25T01:24:12;0.20;;;0.20;;
85196;SDS011;75566;42.698;23.346;2024-03-25T01:26:37;0.28;;;0.20;;
85196;SDS011;75566;42.698;23.346;2024-03-25T01:29:03;0.40;;;0.40;;
85196;SDS011;75566;42.698;23.346;2024-03-25T01:31:28;0.50;;;0.50;;
85196;SDS011;75566;42.698;23.346;2024-03-25T01:33:54;0.20;;;0.10;;
85196;SDS011;75566;42.698;23.346;2024-03-25T01:36:19;0.70;;;0.70;;
85196;SDS011;75566;42.698;23.346;2024-03-25T01:38:45;0.40;;;0.28;;
85196;SDS011;75566;42.698;23.346;2024-03-25T01:41:11;0.30;;;0.30;;
85196;SDS011;75566;42.698;23.346;2024-03-25T01:43:37;1.05;;;0.28;;
85196;SDS011;75566;42.698;23.346;2024-03-25T01:46:04;0.28;;;0.28;;
85196;SDS011;75566;42.698;23.346;2024-03-25T01:48:30;0.20;;;0.20;;
85196;SDS011;75566;42.698;23.346;2024-03-25T01:50:56;0.30;;;0.25;;
85196;SDS011;75566;42.698;23.346;2024-03-25T01:53:23;0.17;;;0.17;;
85196;SDS011;75566;42.698;23.346;2024-03-25T01:55:49;1.98;;;0.28;;
85196;SDS011;75566;42.698;23.346;2024-03-25T01:58:20;0.50;;;0.30;;
85196;SDS011;75566;42.698;23.346;2024-03-25T02:00:46;0.13;;;0.10;;
85196;SDS011;75566;42.698;23.346;2024-03-25T02:03:12;0.20;;;0.20;;
85196;SDS011;75566;42.698;23.346;2024-03-25T02:05:38;0.00;;;0.00;;
85196;SDS011;75566;42.698;23.346;2024-03-25T02:08:04;0.00;;;0.00;;
85196;SDS011;75566;42.698;23.346;2024-03-25T02:10:31;0.40;;;0.40;;
85196;SDS011;75566;42.698;23.346;2024-03-25T02:12:57;0.00;;;0.00;;
85196;SDS011;75566;42.698;23.346;2024-03-25T02:15:23;0.30;;;0.13;;
85196;SDS011;75566;42.698;23.346;2024-03-25T02:17:51;0.30;;;0.30;;
85196;SDS011;75566;42.698;23.346;2024-03-25T02:20:17;0.57;;;0.57;;
85196;SDS011;75566;42.698;23.346;2024-03-25T02:22:42;0.20;;;0.20;;
85196;SDS011;75566;42.698;23.346;2024-03-25T02:25:08;0.22;;;0.22;;
85196;SDS011;75566;42.698;23.346;2024-03-25T02:27:36;0.10;;;0.10;;
85196;SDS011;75566;42.698;23.346;2024-03-25T02:30:06;1.70;;;1.10;;
85196;SDS011;75566;42.698;23.346;2024-03-25T02:32:33;0.50;;;0.47;;
85196;SDS011;75566;42.698;23.346;2024-03-25T02:34:59;1.17;;;0.55;;
85196;SDS011;75566;42.698;23.346;2024-03-25T02:37:27;0.40;;;0.40;;
85196;SDS011;75566;42.698;23.346;2024-03-25T02:39:54;0.40;;;0.40;;
85196;SDS011;75566;42.698;23.346;2024-03-25T02:42:22;0.40;;;0.40;;
85196;SDS011;75566;42.698;23.346;2024-03-25T02:44:49;0.45;;;0.40;;
85196;SDS011;75566;42.698;23.346;2024-03-25T02:47:14;0.45;;;0.45;;
85196;SDS011;75566;42.698;23.346;2024-03-25T02:49:40;0.15;;;0.15;;
85196;SDS011;75566;42.698;23.346;2024-03-25T02:52:08;0.55;;;0.55;;
85196;SDS011;75566;42.698;23.346;2024-03-25T02:54:33;0.38;;;0.38;;
85196;SDS011;75566;42.698;23.346;2024-03-25T02:56:59;0.73;;;0.73;;
85196;SDS011;75566;42.698;23.346;2024-03-25T02:59:24;0.65;;;0.45;;
85196;SDS011;75566;42.698;23.346;2024-03-25T03:01:50;0.40;;;0.38;;
85196;SDS011;75566;42.698;23.346;2024-03-25T03:04:15;0.43;;;0.43;;
85196;SDS011;75566;42.698;23.346;2024-03-25T03:06:40;0.30;;;0.30;;
85196;SDS011;75566;42.698;23.346;2024-03-25T03:09:06;0.65;;;0.65;;
85196;SDS011;75566;42.698;23.346;2024-03-25T03:11:32;0.90;;;0.80;;
85196;SDS011;75566;42.698;23.346;2024-03-25T03:13:57;0.88;;;0.88;;
85196;SDS011;75566;42.698;23.346;2024-03-25T03:16:22;0.80;;;0.80;;
85196;SDS011;75566;42.698;23.346;2024-03-25T03:18:48;0.52;;;0.52;;
85196;SDS011;75566;42.698;23.346;2024-03-25T03:21:13;0.70;;;0.65;;
85196;SDS011;75566;42.698;23.346;2024-03-25T03:23:39;0.88;;;0.80;;
85196;SDS011;75566;42.698;23.346;2024-03-25T03:26:04;0.75;;;0.75;;
85196;SDS011;75566;42.698;23.346;2024-03-25T03:28:30;0.77;;;0.70;;
85196;SDS011;75566;42.698;23.346;2024-03-25T03:30:56;0.75;;;0.75;;
85196;SDS011;75566;42.698;23.346;2024-03-25T03:33:21;1.00;;;0.93;;
85196;SDS011;75566;42.698;23.346;2024-03-25T03:35:47;1.13;;;1.02;;
85196;SDS011;75566;42.698;23.346;2024-03-25T03:38:12;1.30;;;0.90;;
85196;SDS011;75566;42.698;23.346;2024-03-25T03:40:38;0.80;;;0.80;;
85196;SDS011;75566;42.698;23.346;2024-03-25T03:43:03;1.38;;;1.10;;
85196;SDS011;75566;42.698;23.346;2024-03-25T03:45:32;1.20;;;1.00;;
85196;SDS011;75566;42.698;23.346;2024-03-25T03:50:24;0.70;;;0.70;;
85196;SDS011;75566;42.698;23.346;2024-03-25T03:52:49;0.70;;;0.70;;
85196;SDS011;75566;42.698;23.346;2024-03-25T03:55:15;1.80;;;1.35;;
85196;SDS011;75566;42.698;23.346;2024-03-25T03:57:41;0.82;;;0.70;;
85196;SDS011;75566;42.698;23.346;2024-03-25T04:00:08;0.63;;;0.63;;
85196;SDS011;75566;42.698;23.346;2024-03-25T04:02:36;1.38;;;1.27;;
85196;SDS011;75566;42.698;23.346;2024-03-25T04:05:03;1.48;;;1.05;;
85196;SDS011;75566;42.698;23.346;2024-03-25T04:07:29;1.80;;;1.20;;
85196;SDS011;75566;42.698;23.346;2024-03-25T04:09:57;2.47;;;1.70;;
85196;SDS011;75566;42.698;23.346;2024-03-25T04:12:23;2.35;;;1.40;;
85196;SDS011;75566;42.698;23.346;2024-03-25T04:14:48;1.88;;;1.40;;
85196;SDS011;75566;42.698;23.346;2024-03-25T04:17:19;3.58;;;1.20;;
85196;SDS011;75566;42.698;23.346;2024-03-25T04:19:46;1.88;;;1.48;;
85196;SDS011;75566;42.698;23.346;2024-03-25T04:22:12;2.15;;;1.50;;
85196;SDS011;75566;42.698;23.346;2024-03-25T04:24:37;2.90;;;1.80;;
85196;SDS011;75566;42.698;23.346;2024-03-25T04:27:03;3.10;;;1.85;;
85196;SDS011;75566;42.698;23.346;2024-03-25T04:29:28;1.90;;;1.30;;
85196;SDS011;75566;42.698;23.346;2024-03-25T04:31:54;3.47;;;2.03;;
85196;SDS011;75566;42.698;23.346;2024-03-25T04:34:20;2.67;;;2.00;;
85196;SDS011;75566;42.698;23.346;2024-03-25T04:36:45;4.78;;;3.40;;
85196;SDS011;75566;42.698;23.346;2024-03-25T04:39:11;2.50;;;1.45;;
85196;SDS011;75566;42.698;23.346;2024-03-25T04:41:36;2.50;;;2.08;;
85196;SDS011;75566;42.698;23.346;2024-03-25T04:44:02;4.93;;;3.22;;
85196;SDS011;75566;42.698;23.346;2024-03-25T04:46:27;6.05;;;3.13;;
85196;SDS011;75566;42.698;23.346;2024-03-25T04:48:53;4.53;;;2.80;;
85196;SDS011;75566;42.698;23.346;2024-03-25T04:51:19;5.68;;;3.80;;
85196;SDS011;75566;42.698;23.346;2024-03-25T04:53:44;6.85;;;3.15;;
85196;SDS011;75566;42.698;23.346;2024-03-25T04:56:10;7.22;;;4.32;;
85196;SDS011;75566;42.698;23.346;2024-03-25T04:58:35;8.82;;;4.50;;
85196;SDS011;75566;42.698;23.346;2024-03-25T05:01:01;8.63;;;3.67;;
85196;SDS011;75566;42.698;23.346;2024-03-25T05:03:26;5.38;;;3.63;;
85196;SDS011;75566;42.698;23.346;2024-03-25T05:05:52;6.10;;;3.92;;
85196;SDS011;75566;42.698;23.346;2024-03-25T05:08:17;6.95;;;3.70;;
85196;SDS011;75566;42.698;23.346;2024-03-25T05:10:43;7.88;;;4.35;;
85196;SDS011;75566;42.698;23.346;2024-03-25T05:13:08;6.90;;;3.63;;
85196;SDS011;75566;42.698;23.346;2024-03-25T05:15:34;9.63;;;4.47;;
85196;SDS011;75566;42.698;23.346;2024-03-25T05:17:59;8.20;;;4.03;;
85196;SDS011;75566;42.698;23.346;2024-03-25T05:20:24;9.27;;;4.38;;
85196;SDS011;75566;42.698;23.346;2024-03-25T05:22:51;7.68;;;4.50;;
85196;SDS011;75566;42.698;23.346;2024-03-25T05:25:17;10.45;;;4.18;;
85196;SDS011;75566;42.698;23.346;2024-03-25T05:27:42;11.30;;;5.38;;
85196;SDS011;75566;42.698;23.346;2024-03-25T05:30:08;9.88;;;5.75;;
85196;SDS011;75566;42.698;23.346;2024-03-25T05:32:33;8.32;;;5.40;;
85196;SDS011;75566;42.698;23.346;2024-03-25T05:34:59;6.97;;;4.82;;
85196;SDS011;75566;42.698;23.346;2024-03-25T05:37:24;9.15;;;4.20;;
85196;SDS011;75566;42.698;23.346;2024-03-25T05:39:50;9.82;;;5.78;;
85196;SDS011;75566;42.698;23.346;2024-03-25T05:42:15;10.02;;;5.15;;
85196;SDS011;75566;42.698;23.346;2024-03-25T05:44:41;6.43;;;4.78;;
85196;SDS011;75566;42.698;23.346;2024-03-25T05:47:06;7.32;;;4.90;;
85196;SDS011;75566;42.698;23.346;2024-03-25T05:49:32;9.23;;;5.30;;
85196;SDS011;75566;42.698;23.346;2024-03-25T05:51:57;10.82;;;6.05;;
85196;SDS011;75566;42.698;23.346;2024-03-25T05:54:23;11.10;;;5.55;;
85196;SDS011;75566;42.698;23.346;2024-03-25T05:56:48;7.97;;;5.00;;
85196;SDS011;75566;42.698;23.346;2024-03-25T05:59:14;9.10;;;5.90;;
85196;SDS011;75566;42.698;23.346;2024-03-25T06:01:39;9.68;;;5.68;;
85196;SDS011;75566;42.698;23.346;2024-03-25T06:04:05;9.77;;;5.90;;
85196;SDS011;75566;42.698;23.346;2024-03-25T06:06:30;11.07;;;5.78;;
85196;SDS011;75566;42.698;23.346;2024-03-25T06:08:57;8.93;;;4.50;;
85196;SDS011;75566;42.698;23.346;2024-03-25T06:11:23;7.43;;;4.32;;
85196;SDS011;75566;42.698;23.346;2024-03-25T06:13:48;11.73;;;6.43;;
85196;SDS011;75566;42.698;23.346;2024-03-25T06:16:14;9.80;;;5.90;;
85196;SDS011;75566;42.698;23.346;2024-03-25T06:18:40;13.10;;;7.30;;
85196;SDS011;75566;42.698;23.346;2024-03-25T06:21:06;10.68;;;6.32;;
85196;SDS011;75566;42.698;23.346;2024-03-25T06:23:31;9.52;;;6.22;;
85196;SDS011;75566;42.698;23.346;2024-03-25T06:25:57;8.77;;;5.68;;
85196;SDS011;75566;42.698;23.346;2024-03-25T06:28:23;9.30;;;4.97;;
85196;SDS011;75566;42.698;23.346;2024-03-25T06:30:49;13.90;;;7.13;;
85196;SDS011;75566;42.698;23.346;2024-03-25T06:33:34;15.45;;;7.70;;
85196;SDS011;75566;42.698;23.346;2024-03-25T06:36:18;12.27;;;7.32;;
85196;SDS011;75566;42.698;23.346;2024-03-25T06:38:44;12.15;;;6.28;;
85196;SDS011;75566;42.698;23.346;2024-03-25T06:41:10;12.10;;;6.57;;
85196;SDS011;75566;42.698;23.346;2024-03-25T06:43:36;12.57;;;7.38;;
85196;SDS011;75566;42.698;23.346;2024-03-25T06:46:03;8.75;;;5.97;;
85196;SDS011;75566;42.698;23.346;2024-03-25T06:48:29;9.05;;;5.78;;
85196;SDS011;75566;42.698;23.346;2024-03-25T06:50:55;9.82;;;6.55;;
85196;SDS011;75566;42.698;23.346;2024-03-25T06:53:22;9.98;;;5.93;;
85196;SDS011;75566;42.698;23.346;2024-03-25T06:55:54;8.60;;;5.00;;
85196;SDS011;75566;42.698;23.346;2024-03-25T06:58:21;11.57;;;7.07;;
85196;SDS011;75566;42.698;23.346;2024-03-25T07:00:48;9.45;;;5.20;;
85196;SDS011;75566;42.698;23.346;2024-03-25T07:03:17;10.30;;;6.72;;
85196;SDS011;75566;42.698;23.346;2024-03-25T07:05:44;10.32;;;5.75;;
85196;SDS011;75566;42.698;23.346;2024-03-25T07:08:14;10.98;;;6.75;;
85196;SDS011;75566;42.698;23.346;2024-03-25T07:10:43;11.60;;;7.05;;
85196;SDS011;75566;42.698;23.346;2024-03-25T07:13:08;12.45;;;7.10;;
85196;SDS011;75566;42.698;23.346;2024-03-25T07:15:34;11.20;;;6.53;;
85196;SDS011;75566;42.698;23.346;2024-03-25T07:18:00;13.40;;;8.20;;
85196;SDS011;75566;42.698;23.346;2024-03-25T07:20:25;12.93;;;7.38;;
85196;SDS011;75566;42.698;23.346;2024-03-25T07:22:52;9.82;;;5.45;;
85196;SDS011;75566;42.698;23.346;2024-03-25T07:25:20;10.93;;;6.35;;
85196;SDS011;75566;42.698;23.346;2024-03-25T07:27:49;10.75;;;6.70;;
85196;SDS011;75566;42.698;23.346;2024-03-25T07:30:15;12.38;;;5.47;;
85196;SDS011;75566;42.698;23.346;2024-03-25T07:32:41;10.75;;;7.13;;
85196;SDS011;75566;42.698;23.346;2024-03-25T07:35:07;9.68;;;7.75;;
85196;SDS011;75566;42.698;23.346;2024-03-25T07:37:34;10.00;;;5.90;;
85196;SDS011;75566;42.698;23.346;2024-03-25T07:40:00;10.18;;;6.13;;
85196;SDS011;75566;42.698;23.346;2024-03-25T07:42:25;9.70;;;4.70;;
85196;SDS011;75566;42.698;23.346;2024-03-25T07:44:51;7.32;;;5.03;;
85196;SDS011;75566;42.698;23.346;2024-03-25T07:47:17;10.80;;;5.95;;
85196;SDS011;75566;42.698;23.346;2024-03-25T07:49:43;9.60;;;5.18;;
85196;SDS011;75566;42.698;23.346;2024-03-25T07:52:09;11.32;;;5.22;;
85196;SDS011;75566;42.698;23.346;2024-03-25T07:54:34;9.85;;;5.88;;
85196;SDS011;75566;42.698;23.346;2024-03-25T07:57:01;14.13;;;5.32;;
85196;SDS011;75566;42.698;23.346;2024-03-25T07:59:28;6.63;;;3.67;;
85196;SDS011;75566;42.698;23.346;2024-03-25T08:01:54;9.85;;;5.18;;
85196;SDS011;75566;42.698;23.346;2024-03-25T08:04:19;8.63;;;5.90;;
85196;SDS011;75566;42.698;23.346;2024-03-25T08:06:45;6.88;;;3.88;;
85196;SDS011;75566;42.698;23.346;2024-03-25T08:09:10;8.10;;;5.88;;
85196;SDS011;75566;42.698;23.346;2024-03-25T08:11:38;5.60;;;4.07;;
85196;SDS011;75566;42.698;23.346;2024-03-25T08:14:03;7.95;;;4.68;;
85196;SDS011;75566;42.698;23.346;2024-03-25T08:16:29;8.50;;;5.45;;
85196;SDS011;75566;42.698;23.346;2024-03-25T08:18:54;8.00;;;5.03;;
85196;SDS011;75566;42.698;23.346;2024-03-25T08:21:20;10.32;;;6.00;;
85196;SDS011;75566;42.698;23.346;2024-03-25T08:23:45;6.38;;;3.97;;
85196;SDS011;75566;42.698;23.346;2024-03-25T08:26:11;9.38;;;6.75;;
85196;SDS011;75566;42.698;23.346;2024-03-25T08:28:37;7.63;;;5.65;;
85196;SDS011;75566;42.698;23.346;2024-03-25T08:31:03;8.93;;;5.68;;
85196;SDS011;75566;42.698;23.346;2024-03-25T08:33:29;9.00;;;6.10;;
85196;SDS011;75566;42.698;23.346;2024-03-25T08:35:54;7.35;;;5.22;;
85196;SDS011;75566;42.698;23.346;2024-03-25T08:38:20;9.73;;;4.93;;
85196;SDS011;75566;42.698;23.346;2024-03-25T08:40:45;10.13;;;6.20;;
85196;SDS011;75566;42.698;23.346;2024-03-25T08:43:11;6.88;;;4.75;;
85196;SDS011;75566;42.698;23.346;2024-03-25T08:45:36;9.13;;;4.03;;
85196;SDS011;75566;42.698;23.346;2024-03-25T08:48:02;9.20;;;4.88;;
85196;SDS011;75566;42.698;23.346;2024-03-25T08:50:27;15.02;;;5.35;;
85196;SDS011;75566;42.698;23.346;2024-03-25T08:52:53;6.55;;;4.97;;
85196;SDS011;75566;42.698;23.346;2024-03-25T08:55:19;9.98;;;4.13;;
85196;SDS011;75566;42.698;23.346;2024-03-25T08:57:45;6.70;;;5.22;;
85196;SDS011;75566;42.698;23.346;2024-03-25T09:00:10;8.35;;;6.88;;
85196;SDS011;75566;42.698;23.346;2024-03-25T09:02:37;5.80;;;4.38;;
85196;SDS011;75566;42.698;23.346;2024-03-25T09:05:03;8.25;;;5.50;;
85196;SDS011;75566;42.698;23.346;2024-03-25T09:07:30;8.95;;;5.25;;
85196;SDS011;75566;42.698;23.346;2024-03-25T09:09:56;8.30;;;5.22;;
85196;SDS011;75566;42.698;23.346;2024-03-25T09:12:40;7.07;;;4.47;;
85196;SDS011;75566;42.698;23.346;2024-03-25T09:15:06;11.57;;;5.65;;
85196;SDS011;75566;42.698;23.346;2024-03-25T09:17:32;10.85;;;4.72;;
85196;SDS011;75566;42.698;23.346;2024-03-25T09:19:57;8.38;;;4.68;;
85196;SDS011;75566;42.698;23.346;2024-03-25T09:22:23;6.57;;;4.88;;
85196;SDS011;75566;42.698;23.346;2024-03-25T09:24:48;8.23;;;5.57;;
85196;SDS011;75566;42.698;23.346;2024-03-25T09:27:14;8.25;;;5.90;;
85196;SDS011;75566;42.698;23.346;2024-03-25T09:29:41;9.00;;;6.55;;
85196;SDS011;75566;42.698;23.346;2024-03-25T09:32:07;10.18;;;4.50;;
85196;SDS011;75566;42.698;23.346;2024-03-25T09:34:33;7.93;;;5.60;;
85196;SDS011;75566;42.698;23.346;2024-03-25T09:36:58;7.03;;;4.90;;
85196;SDS011;75566;42.698;23.346;2024-03-25T09:39:24;9.82;;;5.03;;
85196;SDS011;75566;42.698;23.346;2024-03-25T09:41:50;6.07;;;3.90;;
85196;SDS011;75566;42.698;23.346;2024-03-25T09:44:17;6.18;;;4.78;;
85196;SDS011;75566;42.698;23.346;2024-03-25T09:46:46;16.10;;;5.95;;
85196;SDS011;75566;42.698;23.346;2024-03-25T09:49:12;31.80;;;10.48;;
85196;SDS011;75566;42.698;23.346;2024-03-25T09:51:38;7.70;;;5.38;;
85196;SDS011;75566;42.698;23.346;2024-03-25T09:54:04;11.23;;;4.55;;
85196;SDS011;75566;42.698;23.346;2024-03-25T09:56:29;4.95;;;3.58;;
85196;SDS011;75566;42.698;23.346;2024-03-25T09:58:56;4.95;;;4.32;;
85196;SDS011;75566;42.698;23.346;2024-03-25T10:01:22;6.93;;;4.32;;
85196;SDS011;75566;42.698;23.346;2024-03-25T10:03:48;9.07;;;4.43;;
85196;SDS011;75566;42.698;23.346;2024-03-25T10:06:13;6.35;;;4.85;;
85196;SDS011;75566;42.698;23.346;2024-03-25T10:08:39;5.90;;;4.30;;
85196;SDS011;75566;42.698;23.346;2024-03-25T10:11:04;6.82;;;5.65;;
85196;SDS011;75566;42.698;23.346;2024-03-25T10:13:30;4.95;;;3.63;;
85196;SDS011;75566;42.698;23.346;2024-03-25T10:15:56;6.03;;;4.05;;
85196;SDS011;75566;42.698;23.346;2024-03-25T10:18:21;7.72;;;4.65;;
85196;SDS011;75566;42.698;23.346;2024-03-25T10:20:50;6.00;;;4.38;;
85196;SDS011;75566;42.698;23.346;2024-03-25T10:23:20;6.63;;;4.28;;
85196;SDS011;75566;42.698;23.346;2024-03-25T10:25:47;4.18;;;3.47;;
85196;SDS011;75566;42.698;23.346;2024-03-25T10:28:13;6.15;;;4.95;;
85196;SDS011;75566;42.698;23.346;2024-03-25T10:30:39;5.20;;;4.43;;
85196;SDS011;75566;42.698;23.346;2024-03-25T10:33:06;5.53;;;3.83;;
85196;SDS011;75566;42.698;23.346;2024-03-25T10:35:37;5.18;;;3.47;;
85196;SDS011;75566;42.698;23.346;2024-03-25T10:38:04;5.05;;;3.75;;
85196;SDS011;75566;42.698;23.346;2024-03-25T10:40:36;5.00;;;3.70;;
85196;SDS011;75566;42.698;23.346;2024-03-25T10:43:03;4.28;;;3.10;;
85196;SDS011;75566;42.698;23.346;2024-03-25T10:46:06;4.55;;;3.50;;
85196;SDS011;75566;42.698;23.346;2024-03-25T10:50:56;4.55;;;4.15;;
85196;SDS011;75566;42.698;23.346;2024-03-25T10:53:22;5.55;;;4.43;;
85196;SDS011;75566;42.698;23.346;2024-03-25T10:55:53;6.45;;;3.75;;
85196;SDS011;75566;42.698;23.346;2024-03-25T10:58:20;3.92;;;3.10;;
85196;SDS011;75566;42.698;23.346;2024-03-25T11:00:50;5.28;;;4.32;;
85196;SDS011;75566;42.698;23.346;2024-03-25T11:03:20;4.80;;;3.60;;
85196;SDS011;75566;42.698;23.346;2024-03-25T11:05:46;6.32;;;4.82;;
85196;SDS011;75566;42.698;23.346;2024-03-25T11:08:13;5.97;;;4.20;;
85196;SDS011;75566;42.698;23.346;2024-03-25T11:10:46;5.05;;;4.18;;
85196;SDS011;75566;42.698;23.346;2024-03-25T11:13:12;6.90;;;3.97;;
85196;SDS011;75566;42.698;23.346;2024-03-25T11:15:42;6.60;;;4.25;;
85196;SDS011;75566;42.698;23.346;2024-03-25T11:18:13;4.75;;;3.78;;
85196;SDS011;75566;42.698;23.346;2024-03-25T11:20:39;5.85;;;3.42;;
85196;SDS011;75566;42.698;23.346;2024-03-25T11:23:11;3.63;;;2.85;;
85196;SDS011;75566;42.698;23.346;2024-03-25T11:25:38;5.90;;;3.70;;
85196;SDS011;75566;42.698;23.346;2024-03-25T11:28:04;3.85;;;3.28;;
85196;SDS011;75566;42.698;23.346;2024-03-25T11:30:31;3.85;;;3.13;;
85196;SDS011;75566;42.698;23.346;2024-03-25T11:32:58;3.95;;;3.00;;
85196;SDS011;75566;42.698;23.346;2024-03-25T11:35:26;2.55;;;2.22;;
85196;SDS011;75566;42.698;23.346;2024-03-25T11:37:52;3.58;;;2.83;;
85196;SDS011;75566;42.698;23.346;2024-03-25T11:40:17;2.55;;;2.22;;
85196;SDS011;75566;42.698;23.346;2024-03-25T11:42:44;3.75;;;2.88;;
85196;SDS011;75566;42.698;23.346;2024-03-25T11:47:43;4.78;;;3.45;;
85196;SDS011;75566;42.698;23.346;2024-03-25T11:50:10;3.78;;;3.45;;
85196;SDS011;75566;42.698;23.346;2024-03-25T11:52:40;3.50;;;3.20;;
85196;SDS011;75566;42.698;23.346;2024-03-25T11:55:05;6.30;;;3.40;;
85196;SDS011;75566;42.698;23.346;2024-03-25T11:57:33;5.65;;;3.63;;
85196;SDS011;75566;42.698;23.346;2024-03-25T12:00:00;4.50;;;3.55;;
85196;SDS011;75566;42.698;23.346;2024-03-25T12:02:27;2.47;;;2.28;;
85196;SDS011;75566;42.698;23.346;2024-03-25T12:04:53;3.17;;;2.88;;
85196;SDS011;75566;42.698;23.346;2024-03-25T12:07:18;5.53;;;2.90;;
85196;SDS011;75566;42.698;23.346;2024-03-25T12:09:44;4.47;;;2.80;;
85196;SDS011;75566;42.698;23.346;2024-03-25T12:12:28;3.80;;;3.50;;
85196;SDS011;75566;42.698;23.346;2024-03-25T12:14:53;4.45;;;3.30;;
85196;SDS011;75566;42.698;23.346;2024-03-25T12:17:21;3.30;;;3.00;;
85196;SDS011;75566;42.698;23.346;2024-03-25T12:20:03;6.35;;;3.22;;
85196;SDS011;75566;42.698;23.346;2024-03-25T12:22:30;5.07;;;2.80;;
85196;SDS011;75566;42.698;23.346;2024-03-25T12:24:58;3.42;;;2.83;;
85196;SDS011;75566;42.698;23.346;2024-03-25T12:27:24;3.42;;;2.80;;
85196;SDS011;75566;42.698;23.346;2024-03-25T12:30:02;4.63;;;3.42;;
85196;SDS011;75566;42.698;23.346;2024-03-25T12:35:09;3.95;;;3.42;;
85196;SDS011;75566;42.698;23.346;2024-03-25T12:37:36;3.17;;;2.90;;
85196;SDS011;75566;42.698;23.346;2024-03-25T12:40:06;4.10;;;3.05;;
85196;SDS011;75566;42.698;23.346;2024-03-25T12:42:33;3.65;;;3.35;;
85196;SDS011;75566;42.698;23.346;2024-03-25T12:44:59;3.63;;;2.80;;
85196;SDS011;75566;42.698;23.346;2024-03-25T12:47:24;3.20;;;2.78;;
85196;SDS011;75566;42.698;23.346;2024-03-25T12:49:50;2.67;;;2.38;;
85196;SDS011;75566;42.698;23.346;2024-03-25T12:52:16;3.63;;;3.17;;
85196;SDS011;75566;42.698;23.346;2024-03-25T12:54:41;4.00;;;3.13;;
85196;SDS011;75566;42.698;23.346;2024-03-25T12:57:07;4.43;;;2.42;;
85196;SDS011;75566;42.698;23.346;2024-03-25T12:59:33;3.42;;;2.78;;
85196;SDS011;75566;42.698;23.346;2024-03-25T13:01:59;3.00;;;2.80;;
85196;SDS011;75566;42.698;23.346;2024-03-25T13:04:26;4.45;;;2.13;;
85196;SDS011;75566;42.698;23.346;2024-03-25T13:06:52;2.53;;;2.33;;
85196;SDS011;75566;42.698;23.346;2024-03-25T13:09:18;2.65;;;2.45;;
85196;SDS011;75566;42.698;23.346;2024-03-25T13:11:43;2.75;;;2.50;;
85196;SDS011;75566;42.698;23.346;2024-03-25T13:14:10;2.80;;;2.58;;
85196;SDS011;75566;42.698;23.346;2024-03-25T13:19:21;2.78;;;2.53;;
85196;SDS011;75566;42.698;23.346;2024-03-25T13:21:46;3.25;;;2.83;;
85196;SDS011;75566;42.698;23.346;2024-03-25T13:24:13;2.38;;;2.15;;
85196;SDS011;75566;42.698;23.346;2024-03-25T13:26:39;3.65;;;3.10;;
85196;SDS011;75566;42.698;23.346;2024-03-25T13:29:04;2.88;;;2.53;;
85196;SDS011;75566;42.698;23.346;2024-03-25T13:31:30;2.97;;;2.58;;
85196;SDS011;75566;42.698;23.346;2024-03-25T13:33:55;4.18;;;2.78;;
85196;SDS011;75566;42.698;23.346;2024-03-25T13:36:21;3.08;;;2.58;;
85196;SDS011;75566;42.698;23.346;2024-03-25T13:38:46;2.40;;;2.15;;
85196;SDS011;75566;42.698;23.346;2024-03-25T13:41:12;3.88;;;2.45;;
85196;SDS011;75566;42.698;23.346;2024-03-25T13:43:44;3.30;;;2.45;;
85196;SDS011;75566;42.698;23.346;2024-03-25T13:46:09;3.88;;;2.60;;
85196;SDS011;75566;42.698;23.346;2024-03-25T13:48:37;3.53;;;3.25;;
85196;SDS011;75566;42.698;23.346;2024-03-25T13:51:02;2.30;;;2.03;;
85196;SDS011;75566;42.698;23.346;2024-03-25T13:53:28;3.55;;;2.58;;
85196;SDS011;75566;42.698;23.346;2024-03-25T13:55:54;3.58;;;2.58;;
85196;SDS011;75566;42.698;23.346;2024-03-25T13:58:19;2.45;;;2.17;;
85196;SDS011;75566;42.698;23.346;2024-03-25T14:00:45;2.22;;;2.03;;
85196;SDS011;75566;42.698;23.346;2024-03-25T14:03:10;4.30;;;1.95;;
85196;SDS011;75566;42.698;23.346;2024-03-25T14:05:36;3.45;;;1.77;;
85196;SDS011;75566;42.698;23.346;2024-03-25T14:08:01;0.80;;;0.77;;
85196;SDS011;75566;42.698;23.346;2024-03-25T14:10:27;2.45;;;1.70;;
85196;SDS011;75566;42.698;23.346;2024-03-25T14:12:52;2.13;;;1.92;;
85196;SDS011;75566;42.698;23.346;2024-03-25T14:15:18;1.70;;;1.60;;
85196;SDS011;75566;42.698;23.346;2024-03-25T14:17:43;2.72;;;1.77;;
85196;SDS011;75566;42.698;23.346;2024-03-25T14:20:09;2.75;;;1.85;;
85196;SDS011;75566;42.698;23.346;2024-03-25T14:22:35;1.38;;;1.27;;
85196;SDS011;75566;42.698;23.346;2024-03-25T14:25:01;1.67;;;1.58;;
85196;SDS011;75566;42.698;23.346;2024-03-25T14:27:26;1.50;;;1.40;;
85196;SDS011;75566;42.698;23.346;2024-03-25T14:29:52;1.33;;;1.23;;
85196;SDS011;75566;42.698;23.346;2024-03-25T14:32:20;2.20;;;1.48;;
85196;SDS011;75566;42.698;23.346;2024-03-25T14:34:47;1.75;;;1.60;;
85196;SDS011;75566;42.698;23.346;2024-03-25T14:37:14;1.35;;;1.13;;
85196;SDS011;75566;42.698;23.346;2024-03-25T14:39:39;3.22;;;1.40;;
85196;SDS011;75566;42.698;23.346;2024-03-25T14:42:07;1.73;;;1.50;;